createdAt,value
2018-12-24T00:00:12.811Z,93.17
2018-12-24T00:01:13.505Z,93.08
2018-12-24T00:02:14.283Z,93.51
2018-12-24T00:03:15.246Z,93.22
2018-12-24T00:04:15.936Z,92.93
2018-12-24T00:05:17.179Z,93.12
2018-12-24T00:06:17.590Z,92.17
2018-12-24T00:07:18.278Z,92.17
2018-12-24T00:08:19.227Z,92.07
2018-12-24T00:09:19.915Z,91.69
2018-12-24T00:10:21.474Z,91.98
2018-12-24T00:11:21.704Z,91.6
2018-12-24T00:12:21.949Z,91.69
2018-12-24T00:13:22.357Z,90.93
2018-12-24T00:14:22.887Z,91.88
2018-12-24T00:15:23.305Z,91.69
2018-12-24T00:16:24.500Z,91.31
2018-12-24T00:17:25.192Z,91.41
2018-12-24T00:18:26.318Z,91.41
2018-12-24T00:19:27.006Z,91.5
2018-12-24T00:20:28.414Z,91.88
2018-12-24T00:21:29.833Z,91.6
2018-12-24T00:22:30.056Z,91.21
2018-12-24T00:23:31.466Z,91.21
2018-12-24T00:24:31.877Z,91.69
2018-12-24T00:25:31.844Z,92.26
2018-12-24T00:26:32.977Z,92.26
2018-12-24T00:27:33.944Z,92.17
2018-12-24T00:28:34.759Z,92.17
2018-12-24T00:29:34.892Z,91.98
2018-12-24T00:30:35.584Z,91.21
2018-12-24T00:31:36.652Z,91.41
2018-12-24T00:32:36.335Z,91.98
2018-12-24T00:33:37.019Z,91.5
2018-12-24T00:34:38.095Z,91.31
2018-12-24T00:35:39.060Z,91.21
2018-12-24T00:36:39.187Z,91.02
2018-12-24T00:37:39.875Z,90.64
2018-12-24T00:38:41.000Z,90.83
2018-12-24T00:39:42.411Z,90.64
2018-12-24T00:40:43.497Z,90.36
2018-12-24T00:41:44.459Z,90.45
2018-12-24T00:42:45.868Z,90.07
2018-12-24T00:43:46.278Z,89.97
2018-12-24T00:44:47.691Z,89.78
2018-12-24T00:45:47.824Z,89.88
2018-12-24T00:46:48.242Z,90.17
2018-12-24T00:47:49.485Z,90.07
2018-12-24T00:48:49.856Z,90.26
2018-12-24T00:49:50.821Z,90.83
2018-12-24T00:50:51.229Z,90.36
2018-12-24T00:51:51.971Z,90.07
2018-12-24T00:52:53.231Z,90.17
2018-12-24T00:53:53.719Z,90.07
2018-12-24T00:54:54.963Z,89.97
2018-12-24T00:55:55.380Z,90.26
2018-12-24T00:56:56.066Z,89.88
2018-12-24T00:57:57.125Z,89.97
2018-12-24T00:58:57.526Z,90.36
2018-12-24T00:59:57.939Z,90.07
2018-12-24T01:00:58.350Z,89.88
2018-12-24T01:01:59.763Z,90.83
2018-12-24T01:03:00.726Z,91.5
2018-12-24T01:04:01.705Z,91.02
2018-12-24T01:05:02.944Z,90.83
2018-12-24T01:06:03.466Z,90.83
2018-12-24T01:07:03.600Z,90.55
2018-12-24T01:08:04.735Z,90.55
2018-12-24T01:09:05.847Z,90.93
2018-12-24T01:10:06.856Z,90.73
2018-12-24T01:11:07.985Z,90.73
2018-12-24T01:12:08.395Z,90.93
2018-12-24T01:13:09.362Z,91.31
2018-12-24T01:14:09.771Z,92.07
2018-12-24T01:15:10.461Z,91.02
2018-12-24T01:16:11.874Z,91.21
2018-12-24T01:17:12.287Z,90.36
2018-12-24T01:18:13.625Z,90.73
2018-12-24T01:19:14.166Z,90.45
2018-12-24T01:20:15.300Z,90.17
2018-12-24T01:21:15.709Z,90.64
2018-12-24T01:22:16.397Z,91.02
2018-12-24T01:23:16.805Z,91.21
2018-12-24T01:24:30.453Z,90.07
2018-12-24T01:25:31.001Z,91.31
2018-12-24T01:26:32.132Z,91.41
2018-12-24T01:27:33.118Z,90.55
2018-12-24T01:28:34.364Z,91.02
2018-12-24T01:29:35.050Z,91.88
2018-12-24T01:30:35.738Z,91.69
2018-12-24T01:31:36.700Z,91.78
2018-12-24T01:32:37.221Z,91.5
2018-12-24T01:33:37.354Z,90.93
2018-12-24T01:34:38.037Z,90.83
2018-12-24T01:35:38.650Z,90.36
2018-12-24T01:36:39.614Z,90.93
2018-12-24T01:37:40.144Z,90.45
2018-12-24T01:38:40.936Z,90.83
2018-12-24T01:39:41.626Z,90.07
2018-12-24T01:40:42.318Z,89.69
2018-12-24T01:41:43.581Z,89.97
2018-12-24T01:42:43.990Z,89.88
2018-12-24T01:43:45.685Z,90.17
2018-12-24T01:44:46.196Z,90.17
2018-12-24T01:45:47.312Z,89.78
2018-12-24T01:46:48.091Z,89.97
2018-12-24T01:47:48.779Z,89.4
2018-12-24T01:48:49.467Z,89.4
2018-12-24T01:49:50.265Z,89.12
2018-12-24T01:50:50.952Z,89.12
2018-12-24T01:51:52.029Z,88.64
2018-12-24T01:52:52.157Z,89.12
2018-12-24T01:53:52.849Z,89.12
2018-12-24T01:54:53.536Z,89.5
2018-12-24T01:55:54.252Z,89.31
2018-12-24T01:56:55.494Z,90.17
2018-12-24T01:57:55.184Z,91.31
2018-12-24T01:58:56.151Z,90.83
2018-12-24T01:59:56.901Z,90.83
2018-12-24T02:00:58.147Z,92.26
2018-12-24T02:01:58.835Z,91.21
2018-12-24T02:02:59.244Z,91.88
2018-12-24T02:03:59.783Z,92.65
2018-12-24T02:04:59.915Z,93.02
2018-12-24T02:06:00.367Z,93.41
2018-12-24T02:07:01.178Z,93.51
2018-12-24T02:08:01.981Z,93.7
2018-12-24T02:09:02.217Z,95.41
2018-12-24T02:10:02.624Z,94.93
2018-12-24T02:11:03.966Z,94.41
2018-12-24T02:12:04.100Z,94.98
2018-12-24T02:13:05.123Z,95.17
2018-12-24T02:14:05.636Z,94.89
2018-12-24T02:15:05.767Z,94.22
2018-12-24T02:16:06.395Z,94.51
2018-12-24T02:17:07.086Z,95.08
2018-12-24T02:18:07.519Z,94.32
2018-12-24T02:19:08.652Z,94.32
2018-12-24T02:20:09.618Z,94.56
2018-12-24T02:21:11.032Z,95.37
2018-12-24T02:22:13.679Z,95.17
2018-12-24T02:23:14.086Z,94.7
2018-12-24T02:24:14.495Z,94.6
2018-12-24T02:25:14.906Z,94.41
2018-12-24T02:26:15.744Z,94.51
2018-12-24T02:27:16.428Z,94.98
2018-12-24T02:28:17.670Z,93.93
2018-12-24T02:29:18.633Z,94.03
2018-12-24T02:30:19.908Z,94.12
2018-12-24T02:31:20.898Z,93.98
2018-12-24T02:32:21.159Z,93.65
2018-12-24T02:33:22.456Z,93.46
2018-12-24T02:34:22.698Z,92.41
2018-12-24T02:35:23.796Z,92.6
2018-12-24T02:36:24.766Z,92.03
2018-12-24T02:37:25.735Z,92.03
2018-12-24T02:38:25.456Z,90.59
2018-12-24T02:39:26.420Z,90.17
2018-12-24T02:40:26.674Z,90.17
2018-12-24T02:41:27.636Z,88.83
2018-12-24T02:42:28.879Z,90.17
2018-12-24T02:43:29.761Z,89.88
2018-12-24T02:44:30.467Z,88.83
2018-12-24T02:45:31.262Z,89.31
2018-12-24T02:46:32.686Z,89.59
2018-12-24T02:47:33.932Z,89.69
2018-12-24T02:48:33.900Z,89.69
2018-12-24T02:49:34.164Z,89.21
2018-12-24T02:50:35.587Z,88.54
2018-12-24T02:51:36.176Z,88.35
2018-12-24T02:52:37.437Z,88.35
2018-12-24T02:53:37.970Z,88.35
2018-12-24T02:54:39.213Z,88.64
2018-12-24T02:55:40.219Z,89.88
2018-12-24T02:56:40.640Z,89.31
2018-12-24T02:57:41.605Z,88.73
2018-12-24T02:58:42.294Z,88.16
2018-12-24T02:59:43.305Z,88.83
2018-12-24T03:00:44.548Z,88.26
2018-12-24T03:01:45.073Z,88.35
2018-12-24T03:02:46.435Z,89.12
2018-12-24T03:03:46.404Z,89.21
2018-12-24T03:04:46.805Z,89.59
2018-12-24T03:05:47.493Z,89.5
2018-12-24T03:06:48.447Z,89.31
2018-12-24T03:07:49.415Z,89.31
2018-12-24T03:08:50.657Z,88.73
2018-12-24T03:09:51.194Z,89.5
2018-12-24T03:10:51.268Z,89.31
2018-12-24T03:11:52.237Z,90.45
2018-12-24T03:13:04.995Z,90.73
2018-12-24T03:14:05.668Z,90.55
2018-12-24T03:15:06.098Z,90.26
2018-12-24T03:16:07.071Z,90.17
2018-12-24T03:17:07.202Z,90.26
2018-12-24T03:18:08.560Z,89.97
2018-12-24T03:19:09.253Z,89.78
2018-12-24T03:20:09.248Z,89.59
2018-12-24T03:21:10.519Z,89.4
2018-12-24T03:22:10.571Z,89.97
2018-12-24T03:23:11.089Z,90.07
2018-12-24T03:24:11.749Z,89.78
2018-12-24T03:25:12.278Z,89.31
2018-12-24T03:26:12.970Z,89.59
2018-12-24T03:27:13.771Z,89.97
2018-12-24T03:28:14.742Z,90.73
2018-12-24T03:29:15.472Z,90.93
2018-12-24T03:30:16.046Z,92.07
2018-12-24T03:31:17.206Z,92.46
2018-12-24T03:32:18.972Z,93.22
2018-12-24T03:33:20.516Z,93.41
2018-12-24T03:34:21.351Z,94.27
2018-12-24T03:35:22.082Z,93.93
2018-12-24T03:36:22.891Z,94.89
2018-12-24T03:37:23.135Z,96.13
2018-12-24T03:38:24.120Z,97.17
2018-12-24T03:39:25.366Z,98.03
2018-12-24T03:40:26.609Z,97.66
2018-12-24T03:41:27.147Z,98.42
2018-12-24T03:42:27.666Z,97.56
2018-12-24T03:43:28.633Z,98.03
2018-12-24T03:44:30.137Z,98.42
2018-12-24T03:45:30.809Z,99.27
2018-12-24T03:46:31.349Z,99.99
2018-12-24T03:47:31.869Z,99.27
2018-12-24T03:48:33.114Z,99.99
2018-12-24T03:49:33.802Z,99.99
2018-12-24T03:50:34.046Z,99.99
2018-12-24T03:51:35.294Z,99.99
2018-12-24T03:52:36.534Z,99.85
2018-12-24T03:53:37.238Z,99.99
2018-12-24T03:54:38.219Z,99.99
2018-12-24T03:55:39.194Z,99.99
2018-12-24T03:56:40.171Z,99.99
2018-12-24T03:57:40.150Z,99.99
2018-12-24T03:58:41.401Z,99.99
2018-12-24T03:59:42.093Z,99.99
2018-12-24T04:00:42.788Z,99.75
2018-12-24T04:01:43.474Z,99.99
2018-12-24T04:02:44.751Z,99.99
2018-12-24T04:03:45.454Z,99.99
2018-12-24T04:04:46.116Z,99.99
2018-12-24T04:05:47.082Z,99.99
2018-12-24T04:06:48.047Z,99.99
2018-12-24T04:07:49.292Z,99.99
2018-12-24T04:08:49.262Z,99.99
2018-12-24T04:09:50.511Z,99.99
2018-12-24T04:10:51.496Z,99.99
2018-12-24T04:11:51.459Z,99.99
2018-12-24T04:12:52.149Z,99.99
2018-12-24T04:13:53.952Z,99.99
2018-12-24T04:14:54.386Z,99.99
2018-12-24T04:15:55.350Z,99.99
2018-12-24T04:16:56.142Z,99.99
2018-12-24T04:17:56.837Z,99.99
2018-12-24T04:18:57.808Z,99.99
2018-12-24T04:19:58.050Z,99.99
2018-12-24T04:20:58.737Z,99.99
2018-12-24T04:21:59.148Z,99.99
2018-12-24T04:22:59.942Z,99.99
2018-12-24T04:24:00.349Z,99.99
2018-12-24T04:25:01.053Z,99.99
2018-12-24T04:26:01.451Z,99.99
2018-12-24T04:27:02.691Z,99.99
2018-12-24T04:28:03.376Z,99.99
2018-12-24T04:29:04.342Z,99.99
2018-12-24T04:30:05.752Z,99.99
2018-12-24T04:31:06.449Z,99.99
2018-12-24T04:32:06.580Z,99.99
2018-12-24T04:33:07.306Z,99.99
2018-12-24T04:34:07.992Z,99.99
2018-12-24T04:35:08.945Z,99.99
2018-12-24T04:36:10.206Z,99.99
2018-12-24T04:37:10.616Z,99.99
2018-12-24T04:38:11.025Z,99.99
2018-12-24T04:39:12.000Z,99.99
2018-12-24T04:40:12.687Z,99.99
2018-12-24T04:41:13.933Z,99.99
2018-12-24T04:42:14.896Z,99.99
2018-12-24T04:43:15.588Z,99.99
2018-12-24T04:44:16.549Z,99.99
2018-12-24T04:45:16.763Z,99.99
2018-12-24T04:46:17.173Z,99.99
2018-12-24T04:47:18.138Z,99.99
2018-12-24T04:48:19.216Z,99.99
2018-12-24T04:49:19.627Z,99.99
2018-12-24T04:50:21.159Z,99.99
2018-12-24T04:51:21.410Z,99.99
2018-12-24T04:52:22.440Z,99.99
2018-12-24T04:53:22.850Z,99.99
2018-12-24T04:54:23.932Z,99.99
2018-12-24T04:55:24.042Z,99.99
2018-12-24T04:56:25.005Z,99.99
2018-12-24T04:57:25.409Z,99.99
2018-12-24T04:58:26.097Z,99.99
2018-12-24T04:59:27.066Z,99.99
2018-12-24T05:00:27.314Z,99.99
2018-12-24T05:01:27.787Z,99.99
2018-12-24T05:02:29.030Z,99.99
2018-12-24T05:03:29.715Z,99.99
2018-12-24T05:04:30.126Z,99.99
2018-12-24T05:05:30.554Z,99.99
2018-12-24T05:06:32.086Z,99.99
2018-12-24T05:07:32.631Z,99.99
2018-12-24T05:08:33.036Z,99.99
2018-12-24T05:09:34.440Z,99.99
2018-12-24T05:10:34.843Z,99.99
2018-12-24T05:11:35.528Z,99.99
2018-12-24T05:12:36.655Z,99.99
2018-12-24T05:13:41.962Z,99.99
2018-12-24T05:14:43.095Z,99.99
2018-12-24T05:15:44.460Z,99.99
2018-12-24T05:16:44.146Z,99.99
2018-12-24T05:17:44.765Z,99.99
2018-12-24T05:18:45.730Z,99.99
2018-12-24T05:19:46.443Z,99.99
2018-12-24T05:20:46.850Z,99.99
2018-12-24T05:21:47.628Z,99.99
2018-12-24T05:22:48.595Z,99.99
2018-12-24T05:23:48.724Z,99.99
2018-12-24T05:24:49.408Z,99.99
2018-12-24T05:25:50.052Z,99.99
2018-12-24T05:26:51.014Z,99.99
2018-12-24T05:27:52.018Z,99.99
2018-12-24T05:28:53.072Z,99.99
2018-12-24T05:29:53.202Z,99.99
2018-12-24T05:30:54.163Z,99.99
2018-12-24T05:31:54.571Z,99.99
2018-12-24T05:32:55.255Z,99.99
2018-12-24T05:33:55.225Z,99.99
2018-12-24T05:34:57.021Z,99.99
2018-12-24T05:35:57.553Z,99.99
2018-12-24T05:36:58.240Z,99.99
2018-12-24T05:37:58.923Z,99.99
2018-12-24T05:39:00.605Z,99.99
2018-12-24T05:40:01.098Z,99.99
2018-12-24T05:41:02.080Z,99.99
2018-12-24T05:42:03.217Z,99.99
2018-12-24T05:43:03.900Z,99.99
2018-12-24T05:44:04.308Z,99.99
2018-12-24T05:45:04.718Z,99.99
2018-12-24T05:46:05.524Z,99.99
2018-12-24T05:47:06.653Z,99.99
2018-12-24T05:48:07.781Z,99.99
2018-12-24T05:49:08.472Z,99.99
2018-12-24T05:50:08.877Z,99.99
2018-12-24T05:51:10.003Z,99.99
2018-12-24T05:52:10.221Z,99.99
2018-12-24T05:53:10.632Z,99.99
2018-12-24T05:54:11.316Z,99.99
2018-12-24T05:55:12.275Z,99.99
2018-12-24T05:56:13.123Z,99.99
2018-12-24T05:57:13.528Z,99.99
2018-12-24T05:58:14.653Z,99.99
2018-12-24T05:59:16.059Z,99.99
2018-12-24T06:00:16.749Z,99.99
2018-12-24T06:01:17.161Z,99.99
2018-12-24T06:02:18.288Z,99.99
2018-12-24T06:03:19.695Z,99.99
2018-12-24T06:04:22.914Z,99.99
2018-12-24T06:05:21.595Z,99.99
2018-12-24T06:06:21.858Z,99.99
2018-12-24T06:07:22.268Z,99.99
2018-12-24T06:08:22.672Z,99.99
2018-12-24T06:09:23.078Z,99.99
2018-12-24T06:10:24.037Z,99.99
2018-12-24T06:11:24.167Z,99.99
2018-12-24T06:12:25.130Z,99.99
2018-12-24T06:13:25.812Z,99.99
2018-12-24T06:14:26.497Z,99.99
2018-12-24T06:15:26.632Z,99.99
2018-12-24T06:16:27.130Z,99.99
2018-12-24T06:17:28.256Z,99.99
2018-12-24T06:18:28.943Z,99.99
2018-12-24T06:19:29.938Z,99.99
2018-12-24T06:20:38.586Z,99.99
2018-12-24T06:20:43.385Z,99.99
2018-12-24T06:21:44.467Z,99.99
2018-12-24T06:22:44.599Z,99.99
2018-12-24T06:23:44.822Z,99.99
2018-12-24T06:24:45.228Z,99.99
2018-12-24T06:25:45.744Z,99.99
2018-12-24T06:26:45.876Z,99.99
2018-12-24T06:27:46.558Z,99.99
2018-12-24T06:28:47.531Z,99.99
2018-12-24T06:29:48.935Z,99.99
2018-12-24T06:30:49.640Z,99.99
2018-12-24T06:31:50.466Z,99.99
2018-12-24T06:32:51.191Z,99.99
2018-12-24T06:33:52.319Z,99.99
2018-12-24T06:34:52.720Z,99.99
2018-12-24T06:35:54.125Z,99.99
2018-12-24T06:36:55.365Z,99.99
2018-12-24T06:37:55.773Z,99.99
2018-12-24T06:38:56.177Z,99.99
2018-12-24T06:39:56.580Z,99.99
2018-12-24T06:40:57.737Z,99.99
2018-12-24T06:41:58.270Z,99.99
2018-12-24T06:42:58.946Z,99.99
2018-12-24T06:44:11.677Z,99.99
2018-12-24T06:45:12.337Z,99.99
2018-12-24T06:46:12.741Z,99.99
2018-12-24T06:47:13.424Z,99.99
2018-12-24T06:48:14.107Z,99.99
2018-12-24T06:49:14.515Z,99.99
2018-12-24T06:50:16.858Z,99.99
2018-12-24T06:51:18.269Z,99.99
2018-12-24T06:52:18.773Z,99.99
2018-12-24T06:53:19.456Z,99.99
2018-12-24T06:54:20.860Z,99.99
2018-12-24T06:55:22.275Z,99.99
2018-12-24T06:56:22.524Z,99.99
2018-12-24T06:57:23.760Z,99.99
2018-12-24T06:58:24.268Z,99.99
2018-12-24T06:59:25.261Z,99.99
2018-12-24T07:00:25.227Z,99.99
2018-12-24T07:01:26.209Z,99.99
2018-12-24T07:02:27.343Z,99.99
2018-12-24T07:03:28.023Z,99.99
2018-12-24T07:04:28.704Z,99.99
2018-12-24T07:05:29.794Z,99.99
2018-12-24T07:06:30.198Z,99.99
2018-12-24T07:07:31.154Z,99.99
2018-12-24T07:08:31.558Z,99.99
2018-12-24T07:09:32.036Z,99.99
2018-12-24T07:10:35.539Z,99.99
2018-12-24T07:10:46.735Z,99.99
2018-12-24T07:10:56.990Z,99.99
2018-12-24T07:11:56.564Z,99.99
2018-12-24T07:12:57.689Z,99.99
2018-12-24T07:13:58.374Z,99.99
2018-12-24T07:14:59.061Z,99.99
2018-12-24T07:15:59.751Z,99.99
2018-12-24T07:17:00.429Z,99.99
2018-12-24T07:18:01.494Z,99.99
2018-12-24T07:19:01.738Z,99.99
2018-12-24T07:20:02.146Z,99.99
2018-12-24T07:21:03.114Z,99.99
2018-12-24T07:22:03.392Z,99.99
2018-12-24T07:23:03.796Z,99.99
2018-12-24T07:24:04.925Z,99.99
2018-12-24T07:25:06.054Z,99.99
2018-12-24T07:26:06.735Z,99.99
2018-12-24T07:27:07.599Z,99.99
2018-12-24T07:28:08.831Z,99.99
2018-12-24T07:29:09.235Z,99.99
2018-12-24T07:30:09.916Z,99.99
2018-12-24T07:31:09.881Z,99.99
2018-12-24T07:32:10.973Z,99.99
2018-12-24T07:33:11.661Z,99.99
2018-12-24T07:34:12.904Z,99.99
2018-12-24T07:35:13.865Z,99.99
2018-12-24T07:36:14.107Z,99.99
2018-12-24T07:37:14.068Z,99.99
2018-12-24T07:38:14.752Z,99.99
2018-12-24T07:39:15.155Z,99.99
2018-12-24T07:40:16.283Z,99.99
2018-12-24T07:41:16.468Z,99.99
2018-12-24T07:42:17.823Z,99.99
2018-12-24T07:43:18.049Z,99.99
2018-12-24T07:44:25.494Z,99.99
2018-12-24T07:44:30.569Z,99.99
2018-12-24T07:45:30.686Z,99.99
2018-12-24T07:46:31.370Z,99.99
2018-12-24T07:47:31.773Z,99.99
2018-12-24T07:48:32.813Z,99.99
2018-12-24T07:49:33.525Z,99.99
2018-12-24T07:50:34.204Z,99.99
2018-12-24T07:51:34.617Z,99.99
2018-12-24T07:52:37.433Z,99.99
2018-12-24T07:53:37.973Z,99.99
2018-12-24T07:54:41.020Z,99.99
2018-12-24T07:54:52.867Z,99.99
2018-12-24T07:55:05.267Z,99.99
2018-12-24T07:55:17.778Z,99.99
2018-12-24T07:55:30.088Z,99.99
2018-12-24T07:55:42.242Z,99.99
2018-12-24T07:55:52.695Z,99.99
2018-12-24T07:56:51.791Z,99.99
2018-12-24T07:57:54.991Z,99.99
2018-12-24T07:58:54.663Z,99.99
2018-12-24T07:59:55.903Z,99.99
2018-12-24T08:00:56.028Z,99.99
2018-12-24T08:01:56.714Z,99.99
2018-12-24T08:02:57.675Z,99.99
2018-12-24T08:03:58.800Z,99.99
2018-12-24T08:04:59.482Z,99.99
2018-12-24T08:05:59.998Z,99.99
2018-12-24T08:07:01.373Z,99.99
2018-12-24T08:08:01.776Z,99.99
2018-12-24T08:09:02.180Z,99.99
2018-12-24T08:10:03.314Z,99.99
2018-12-24T08:11:04.593Z,99.99
2018-12-24T08:12:05.359Z,99.99
2018-12-24T08:13:05.639Z,99.99
2018-12-24T08:14:06.628Z,99.99
2018-12-24T08:15:07.998Z,99.99
2018-12-24T08:16:07.960Z,99.99
2018-12-24T08:17:08.493Z,99.99
2018-12-24T08:18:09.200Z,99.99
2018-12-24T08:19:09.446Z,99.99
2018-12-24T08:20:10.408Z,99.99
2018-12-24T08:21:10.821Z,99.99
2018-12-24T08:22:11.948Z,99.99
2018-12-24T08:23:12.636Z,99.99
2018-12-24T08:24:13.142Z,99.99
2018-12-24T08:25:13.387Z,99.99
2018-12-24T08:26:13.797Z,99.99
2018-12-24T08:27:15.161Z,99.99
2018-12-24T08:28:15.943Z,99.99
2018-12-24T08:29:16.351Z,99.99
2018-12-24T08:30:17.034Z,99.99
2018-12-24T08:31:17.723Z,99.99
2018-12-24T08:32:18.963Z,99.99
2018-12-24T08:33:19.367Z,99.99
2018-12-24T08:34:20.327Z,99.99
2018-12-24T08:35:21.291Z,99.99
2018-12-24T08:36:22.698Z,99.99
2018-12-24T08:37:22.730Z,99.99
2018-12-24T08:38:23.416Z,99.99
2018-12-24T08:39:24.829Z,99.99
2018-12-24T08:40:25.245Z,99.99
2018-12-24T08:41:28.503Z,99.99
2018-12-24T08:42:27.363Z,99.99
2018-12-24T08:43:28.048Z,99.99
2018-12-24T08:44:29.287Z,99.99
2018-12-24T08:45:28.977Z,99.99
2018-12-24T08:46:29.663Z,99.99
2018-12-24T08:47:30.477Z,99.99
2018-12-24T08:48:32.444Z,99.99
2018-12-24T08:49:32.686Z,99.99
2018-12-24T08:50:33.099Z,99.99
2018-12-24T08:51:33.836Z,99.99
2018-12-24T08:52:34.517Z,99.99
2018-12-24T08:53:34.928Z,99.99
2018-12-24T08:54:35.336Z,99.99
2018-12-24T08:55:36.746Z,99.99
2018-12-24T08:56:37.156Z,99.99
2018-12-24T08:57:38.252Z,99.99
2018-12-24T08:58:39.221Z,99.99
2018-12-24T08:59:39.356Z,99.99
2018-12-24T09:00:40.485Z,99.99
2018-12-24T09:01:41.889Z,99.99
2018-12-24T09:02:42.408Z,99.99
2018-12-24T09:03:43.094Z,99.99
2018-12-24T09:04:44.061Z,99.99
2018-12-24T09:05:44.186Z,99.99
2018-12-24T09:06:45.164Z,99.99
2018-12-24T09:07:45.855Z,99.99
2018-12-24T09:08:47.101Z,99.99
2018-12-24T09:09:50.950Z,99.99
2018-12-24T09:10:50.832Z,99.99
2018-12-24T09:11:51.100Z,99.99
2018-12-24T09:12:51.508Z,99.99
2018-12-24T09:13:52.201Z,99.99
2018-12-24T09:14:53.325Z,99.99
2018-12-24T09:15:55.782Z,99.99
2018-12-24T09:16:55.078Z,99.99
2018-12-24T09:17:55.331Z,99.99
2018-12-24T09:18:56.296Z,99.99
2018-12-24T09:19:56.708Z,99.99
2018-12-24T09:20:57.840Z,99.99
2018-12-24T09:21:58.808Z,99.99
2018-12-24T09:22:59.215Z,99.99
2018-12-24T09:23:59.899Z,99.99
2018-12-24T09:25:00.028Z,99.99
2018-12-24T09:26:00.550Z,99.99
2018-12-24T09:27:01.513Z,99.99
2018-12-24T09:28:02.905Z,99.99
2018-12-24T09:29:04.039Z,99.99
2018-12-24T09:30:04.790Z,99.99
2018-12-24T09:31:04.920Z,99.99
2018-12-24T09:32:06.345Z,99.99
2018-12-24T09:33:07.030Z,99.99
2018-12-24T09:34:07.718Z,99.99
2018-12-24T09:35:08.680Z,99.99
2018-12-24T09:36:09.684Z,99.99
2018-12-24T09:37:10.815Z,99.99
2018-12-24T09:38:11.674Z,99.99
2018-12-24T09:39:12.918Z,99.99
2018-12-24T09:40:13.431Z,99.99
2018-12-24T09:41:13.842Z,99.99
2018-12-24T09:42:18.229Z,99.99
2018-12-24T09:42:26.880Z,99.99
2018-12-24T09:43:27.447Z,99.99
2018-12-24T09:44:29.153Z,99.99
2018-12-24T09:45:29.559Z,99.99
2018-12-24T09:46:30.969Z,99.99
2018-12-24T09:47:31.654Z,99.99
2018-12-24T09:48:31.619Z,99.99
2018-12-24T09:49:32.582Z,99.99
2018-12-24T09:50:32.991Z,99.99
2018-12-24T09:51:33.242Z,99.99
2018-12-24T09:52:33.649Z,99.99
2018-12-24T09:53:34.756Z,99.99
2018-12-24T09:54:35.166Z,99.99
2018-12-24T09:55:36.128Z,99.99
2018-12-24T09:56:36.536Z,99.99
2018-12-24T09:57:36.968Z,99.99
2018-12-24T09:58:37.502Z,99.99
2018-12-24T09:59:38.187Z,99.99
2018-12-24T10:00:38.706Z,99.99
2018-12-24T10:01:39.111Z,99.99
2018-12-24T10:02:39.519Z,99.99
2018-12-24T10:03:40.348Z,99.99
2018-12-24T10:04:40.483Z,99.99
2018-12-24T10:05:42.198Z,99.99
2018-12-24T10:06:42.607Z,99.99
2018-12-24T10:07:43.743Z,99.99
2018-12-24T10:08:44.431Z,99.99
2018-12-24T10:09:45.123Z,99.99
2018-12-24T10:10:45.533Z,99.99
2018-12-24T10:11:47.137Z,99.99
2018-12-24T10:12:46.433Z,99.99
2018-12-24T10:13:47.290Z,99.99
2018-12-24T10:14:48.697Z,99.99
2018-12-24T10:15:49.865Z,99.99
2018-12-24T10:16:50.088Z,99.99
2018-12-24T10:17:51.468Z,99.99
2018-12-24T10:18:52.436Z,99.99
2018-12-24T10:19:53.125Z,99.99
2018-12-24T10:20:54.367Z,99.99
2018-12-24T10:21:54.710Z,99.99
2018-12-24T10:22:56.009Z,99.99
2018-12-24T10:23:57.720Z,99.99
2018-12-24T10:24:57.716Z,99.99
2018-12-24T10:25:59.122Z,99.99
2018-12-24T10:26:59.449Z,99.99
2018-12-24T10:28:01.039Z,99.99
2018-12-24T10:29:01.444Z,99.99
2018-12-24T10:30:02.096Z,99.99
2018-12-24T10:31:03.191Z,99.99
2018-12-24T10:32:03.322Z,99.99
2018-12-24T10:33:03.629Z,99.99
2018-12-24T10:34:04.448Z,99.99
2018-12-24T10:35:05.586Z,99.99
2018-12-24T10:36:06.278Z,99.99
2018-12-24T10:37:06.969Z,99.99
2018-12-24T10:38:07.945Z,99.99
2018-12-24T10:39:09.078Z,99.99
2018-12-24T10:40:09.554Z,99.99
2018-12-24T10:41:10.687Z,99.99
2018-12-24T10:42:12.430Z,99.99
2018-12-24T10:43:13.864Z,99.99
2018-12-24T10:44:13.056Z,99.99
2018-12-24T10:45:17.843Z,99.99
2018-12-24T10:46:18.971Z,99.99
2018-12-24T10:47:20.101Z,99.99
2018-12-24T10:48:21.344Z,99.99
2018-12-24T10:49:22.308Z,99.99
2018-12-24T10:50:22.720Z,99.99
2018-12-24T10:51:23.405Z,99.99
2018-12-24T10:52:24.365Z,99.99
2018-12-24T10:53:25.331Z,99.99
2018-12-24T10:54:25.977Z,99.99
2018-12-24T10:55:26.479Z,99.99
2018-12-24T10:56:27.890Z,99.99
2018-12-24T10:57:28.063Z,99.99
2018-12-24T10:58:28.774Z,99.99
2018-12-24T10:59:29.221Z,99.99
2018-12-24T11:00:30.631Z,99.99
2018-12-24T11:01:31.316Z,99.99
2018-12-24T11:02:31.729Z,99.99
2018-12-24T11:03:32.420Z,99.99
2018-12-24T11:04:32.636Z,99.99
2018-12-24T11:05:33.604Z,99.99
2018-12-24T11:06:33.336Z,99.99
2018-12-24T11:07:34.470Z,99.99
2018-12-24T11:08:38.177Z,99.99
2018-12-24T11:08:49.398Z,99.99
2018-12-24T11:09:47.608Z,99.99
2018-12-24T11:10:48.016Z,99.99
2018-12-24T11:11:48.989Z,99.99
2018-12-24T11:12:52.483Z,99.99
2018-12-24T11:13:50.940Z,99.99
2018-12-24T11:14:52.092Z,99.99
2018-12-24T11:15:52.506Z,99.99
2018-12-24T11:16:56.872Z,99.99
2018-12-24T11:17:08.056Z,99.99
2018-12-24T11:18:09.066Z,99.99
2018-12-24T11:19:08.636Z,99.99
2018-12-24T11:20:08.769Z,99.99
2018-12-24T11:21:09.180Z,99.99
2018-12-24T11:22:10.699Z,99.99
2018-12-24T11:23:10.830Z,99.99
2018-12-24T11:24:12.242Z,99.99
2018-12-24T11:25:12.706Z,99.99
2018-12-24T11:26:13.391Z,99.99
2018-12-24T11:27:13.801Z,99.99
2018-12-24T11:28:14.844Z,99.99
2018-12-24T11:29:16.736Z,99.99
2018-12-24T11:30:17.009Z,99.99
2018-12-24T11:31:17.525Z,99.99
2018-12-24T11:32:18.211Z,99.99
2018-12-24T11:33:18.620Z,99.99
2018-12-24T11:34:19.592Z,99.99
2018-12-24T11:35:19.726Z,99.99
2018-12-24T11:36:20.694Z,99.99
2018-12-24T11:37:21.655Z,99.99
2018-12-24T11:38:22.734Z,99.99
2018-12-24T11:39:24.496Z,99.99
2018-12-24T11:40:26.370Z,99.99
2018-12-24T11:41:26.013Z,99.99
2018-12-24T11:42:28.823Z,99.99
2018-12-24T11:42:41.915Z,99.99
2018-12-24T11:43:40.781Z,99.99
2018-12-24T11:44:42.092Z,99.99
2018-12-24T11:45:42.649Z,99.99
2018-12-24T11:46:44.337Z,99.99
2018-12-24T11:47:44.470Z,99.99
2018-12-24T11:48:47.236Z,99.99
2018-12-24T11:49:47.004Z,99.99
2018-12-24T11:50:47.257Z,99.99
2018-12-24T11:51:47.668Z,99.99
2018-12-24T11:52:48.355Z,99.99
2018-12-24T11:53:49.653Z,99.99
2018-12-24T11:54:53.251Z,99.99
2018-12-24T11:55:53.415Z,99.99
2018-12-24T11:56:52.220Z,99.99
2018-12-24T11:57:53.634Z,99.99
2018-12-24T11:58:54.043Z,99.99
2018-12-24T11:59:54.455Z,99.99
2018-12-24T12:00:55.590Z,99.99
2018-12-24T12:01:56.096Z,99.99
2018-12-24T12:02:56.507Z,99.99
2018-12-24T12:03:57.319Z,99.99
2018-12-24T12:04:58.013Z,99.99
2018-12-24T12:05:57.977Z,99.99
2018-12-24T12:06:58.673Z,99.99
2018-12-24T12:07:58.805Z,99.99
2018-12-24T12:08:59.214Z,99.99
2018-12-24T12:09:59.906Z,99.99
2018-12-24T12:11:02.376Z,99.99
2018-12-24T12:12:03.901Z,99.99
2018-12-24T12:13:05.761Z,99.99
2018-12-24T12:13:16.384Z,99.99
2018-12-24T12:14:17.193Z,99.99
2018-12-24T12:15:17.881Z,99.99
2018-12-24T12:16:18.911Z,99.99
2018-12-24T12:17:20.156Z,99.99
2018-12-24T12:18:20.574Z,99.99
2018-12-24T12:19:20.983Z,99.99
2018-12-24T12:20:26.475Z,99.99
2018-12-24T12:20:36.417Z,99.99
2018-12-24T12:20:53.745Z,99.99
2018-12-24T12:21:04.294Z,99.99
2018-12-24T12:21:15.044Z,99.99
2018-12-24T12:21:28.310Z,99.99
2018-12-24T12:21:38.407Z,99.99
2018-12-24T12:22:41.700Z,99.99
2018-12-24T12:22:51.624Z,99.99
2018-12-24T12:23:53.496Z,99.99
2018-12-24T12:24:53.632Z,99.99
2018-12-24T12:25:54.043Z,99.99
2018-12-24T12:26:55.550Z,99.99
2018-12-24T12:27:55.962Z,99.99
2018-12-24T12:28:57.371Z,99.99
2018-12-24T12:29:57.503Z,99.99
2018-12-24T12:30:58.635Z,99.99
2018-12-24T12:31:59.323Z,99.99
2018-12-24T12:32:59.732Z,99.99
2018-12-24T12:34:00.220Z,99.99
2018-12-24T12:35:01.100Z,99.99
2018-12-24T12:36:01.514Z,99.99
2018-12-24T12:37:02.205Z,99.99
2018-12-24T12:38:03.173Z,99.99
2018-12-24T12:39:03.582Z,99.99
2018-12-24T12:40:03.995Z,99.99
2018-12-24T12:41:04.681Z,99.99
2018-12-24T12:42:05.133Z,99.99
2018-12-24T12:43:05.840Z,99.99
2018-12-24T12:44:08.992Z,99.99
2018-12-24T12:44:18.843Z,99.99
2018-12-24T12:45:18.214Z,99.99